sensor_id;sensor_type;location;lat;lon;timestamp;pressure;altitude;pressure_sealevel;temperature;humidity
12664;BME280;6396;58.490;15.528;2023-05-21T00:00:41;101885.00;;;11.84;98.04
12664;BME280;6396;58.490;15.528;2023-05-21T00:03:07;101924.41;;;12.08;100.00
12664;BME280;6396;58.490;15.528;2023-05-21T00:05:38;101306.28;;;8.61;100.00
12664;BME280;6396;58.490;15.528;2023-05-21T00:08:07;101623.97;;;10.28;100.00
12664;BME280;6396;58.490;15.528;2023-05-21T00:10:33;102117.47;;;13.18;100.00
12664;BME280;6396;58.490;15.528;2023-05-21T00:13:00;102172.25;;;13.22;100.00
12664;BME280;6396;58.490;15.528;2023-05-21T00:15:27;101590.66;;;10.12;100.00
12664;BME280;6396;58.490;15.528;2023-05-21T00:17:54;102187.41;;;13.10;100.00
12664;BME280;6396;58.490;15.528;2023-05-21T00:20:21;101821.41;;;11.03;100.00
12664;BME280;6396;58.490;15.528;2023-05-21T00:22:48;101688.78;;;10.61;100.00
12664;BME280;6396;58.490;15.528;2023-05-21T00:25:16;101581.94;;;9.99;100.00
12664;BME280;6396;58.490;15.528;2023-05-21T00:27:43;101680.84;;;10.62;100.00
12664;BME280;6396;58.490;15.528;2023-05-21T00:30:10;101250.50;;;8.06;100.00
12664;BME280;6396;58.490;15.528;2023-05-21T00:32:37;101584.53;;;10.02;100.00
12664;BME280;6396;58.490;15.528;2023-05-21T00:35:05;101617.16;;;9.92;100.00
12664;BME280;6396;58.490;15.528;2023-05-21T00:37:32;101761.69;;;10.80;100.00
12664;BME280;6396;58.490;15.528;2023-05-21T00:39:59;101645.38;;;9.84;100.00
12664;BME280;6396;58.490;15.528;2023-05-21T00:42:28;102130.13;;;12.89;100.00
12664;BME280;6396;58.490;15.528;2023-05-21T00:44:55;101626.94;;;9.83;100.00
12664;BME280;6396;58.490;15.528;2023-05-21T00:47:22;101654.19;;;9.80;100.00
12664;BME280;6396;58.490;15.528;2023-05-21T00:49:51;101625.19;;;9.79;100.00
12664;BME280;6396;58.490;15.528;2023-05-21T00:52:18;101273.34;;;7.95;100.00
12664;BME280;6396;58.490;15.528;2023-05-21T00:54:48;102154.13;;;12.77;100.00
12664;BME280;6396;58.490;15.528;2023-05-21T00:57:16;101872.31;;;11.25;100.00
12664;BME280;6396;58.490;15.528;2023-05-21T00:59:46;101950.47;;;11.59;100.00
12664;BME280;6396;58.490;15.528;2023-05-21T01:02:13;102122.47;;;12.65;100.00
12664;BME280;6396;58.490;15.528;2023-05-21T01:04:42;102126.94;;;12.59;100.00
12664;BME280;6396;58.490;15.528;2023-05-21T01:07:09;101956.66;;;11.57;100.00
12664;BME280;6396;58.490;15.528;2023-05-21T01:09:37;102118.41;;;12.29;100.00
12664;BME280;6396;58.490;15.528;2023-05-21T01:12:05;101976.19;;;11.41;100.00
12664;BME280;6396;58.490;15.528;2023-05-21T01:14:32;101965.50;;;11.56;100.00
12664;BME280;6396;58.490;15.528;2023-05-21T01:17:01;102028.94;;;11.62;100.00
12664;BME280;6396;58.490;15.528;2023-05-21T01:19:28;102120.97;;;12.37;100.00
12664;BME280;6396;58.490;15.528;2023-05-21T01:22:05;102151.88;;;12.38;100.00
12664;BME280;6396;58.490;15.528;2023-05-21T01:24:34;102113.28;;;12.10;100.00
12664;BME280;6396;58.490;15.528;2023-05-21T01:27:03;102076.31;;;11.98;100.00
12664;BME280;6396;58.490;15.528;2023-05-21T01:29:31;102115.16;;;11.97;100.00
12664;BME280;6396;58.490;15.528;2023-05-21T01:32:06;101857.13;;;10.32;100.00
12664;BME280;6396;58.490;15.528;2023-05-21T01:34:40;102160.84;;;12.23;100.00
12664;BME280;6396;58.490;15.528;2023-05-21T01:37:13;102039.50;;;11.69;100.00
12664;BME280;6396;58.490;15.528;2023-05-21T01:39:51;102110.75;;;11.98;100.00
12664;BME280;6396;58.490;15.528;2023-05-21T01:42:21;102130.78;;;12.27;100.00
12664;BME280;6396;58.490;15.528;2023-05-21T01:44:50;102092.94;;;12.13;100.00
12664;BME280;6396;58.490;15.528;2023-05-21T01:47:18;102129.84;;;12.34;100.00
12664;BME280;6396;58.490;15.528;2023-05-21T01:49:45;102128.06;;;12.33;100.00
12664;BME280;6396;58.490;15.528;2023-05-21T01:52:12;102130.69;;;12.40;100.00
12664;BME280;6396;58.490;15.528;2023-05-21T01:54:39;102148.34;;;12.39;100.00
12664;BME280;6396;58.490;15.528;2023-05-21T01:57:07;102131.56;;;12.37;100.00
12664;BME280;6396;58.490;15.528;2023-05-21T01:59:34;102126.72;;;11.86;100.00
12664;BME280;6396;58.490;15.528;2023-05-21T02:02:01;102125.47;;;12.30;100.00
12664;BME280;6396;58.490;15.528;2023-05-21T02:04:28;101854.25;;;10.72;100.00
12664;BME280;6396;58.490;15.528;2023-05-21T02:06:56;102156.44;;;12.24;100.00
12664;BME280;6396;58.490;15.528;2023-05-21T02:09:23;101999.19;;;11.31;100.00
12664;BME280;6396;58.490;15.528;2023-05-21T02:11:49;102160.03;;;12.14;100.00
12664;BME280;6396;58.490;15.528;2023-05-21T02:14:18;101805.28;;;10.17;100.00
12664;BME280;6396;58.490;15.528;2023-05-21T02:16:44;102015.00;;;11.39;100.00
12664;BME280;6396;58.490;15.528;2023-05-21T02:19:11;102254.53;;;12.06;100.00
12664;BME280;6396;58.490;15.528;2023-05-21T02:21:38;101834.22;;;10.35;100.00
12664;BME280;6396;58.490;15.528;2023-05-21T02:24:07;101637.94;;;8.71;100.00
12664;BME280;6396;58.490;15.528;2023-05-21T02:26:34;101615.00;;;9.16;100.00
12664;BME280;6396;58.490;15.528;2023-05-21T02:29:02;101298.97;;;7.31;100.00
12664;BME280;6396;58.490;15.528;2023-05-21T02:31:30;101814.91;;;10.24;100.00
12664;BME280;6396;58.490;15.528;2023-05-21T02:33:58;101693.09;;;9.35;100.00
12664;BME280;6396;58.490;15.528;2023-05-21T02:36:25;102142.59;;;11.87;100.00
12664;BME280;6396;58.490;15.528;2023-05-21T02:38:53;101871.16;;;10.37;100.00
12664;BME280;6396;58.490;15.528;2023-05-21T02:41:22;101864.19;;;10.22;100.00
12664;BME280;6396;58.490;15.528;2023-05-21T02:43:48;102084.53;;;11.57;100.00
12664;BME280;6396;58.490;15.528;2023-05-21T02:46:15;102143.53;;;11.76;100.00
12664;BME280;6396;58.490;15.528;2023-05-21T02:48:43;102047.66;;;11.35;100.00
12664;BME280;6396;58.490;15.528;2023-05-21T02:51:10;101368.13;;;7.35;100.00
12664;BME280;6396;58.490;15.528;2023-05-21T02:53:37;101803.66;;;9.83;100.00
12664;BME280;6396;58.490;15.528;2023-05-21T02:56:04;101794.81;;;9.88;100.00
12664;BME280;6396;58.490;15.528;2023-05-21T02:58:31;102114.41;;;11.79;100.00
12664;BME280;6396;58.490;15.528;2023-05-21T03:00:58;102064.34;;;11.41;100.00
12664;BME280;6396;58.490;15.528;2023-05-21T03:03:25;102108.22;;;11.80;100.00
12664;BME280;6396;58.490;15.528;2023-05-21T03:05:53;102102.03;;;11.82;100.00
12664;BME280;6396;58.490;15.528;2023-05-21T03:08:20;102132.94;;;11.80;100.00
12664;BME280;6396;58.490;15.528;2023-05-21T03:10:47;102131.16;;;11.81;100.00
12664;BME280;6396;58.490;15.528;2023-05-21T03:13:14;102040.50;;;11.49;100.00
12664;BME280;6396;58.490;15.528;2023-05-21T03:15:41;102201.69;;;11.85;100.00
12664;BME280;6396;58.490;15.528;2023-05-21T03:18:08;101936.28;;;10.39;100.00
12664;BME280;6396;58.490;15.528;2023-05-21T03:20:36;101621.22;;;8.96;100.00
12664;BME280;6396;58.490;15.528;2023-05-21T03:23:09;102124.84;;;11.98;100.00
12664;BME280;6396;58.490;15.528;2023-05-21T03:25:37;102091.31;;;11.99;100.00
12664;BME280;6396;58.490;15.528;2023-05-21T03:28:03;102093.06;;;11.98;100.00
12664;BME280;6396;58.490;15.528;2023-05-21T03:30:31;101582.56;;;9.06;100.00
12664;BME280;6396;58.490;15.528;2023-05-21T03:32:57;102130.97;;;12.05;100.00
12664;BME280;6396;58.490;15.528;2023-05-21T03:35:25;102092.94;;;12.15;100.00
12664;BME280;6396;58.490;15.528;2023-05-21T03:37:51;102124.66;;;12.22;100.00
12664;BME280;6396;58.490;15.528;2023-05-21T03:40:20;102113.09;;;12.31;100.00
12664;BME280;6396;58.490;15.528;2023-05-21T03:42:47;101777.88;;;10.36;100.00
12664;BME280;6396;58.490;15.528;2023-05-21T03:45:13;102090.88;;;12.44;100.00
12664;BME280;6396;58.490;15.528;2023-05-21T03:47:40;102117.38;;;12.47;100.00
12664;BME280;6396;58.490;15.528;2023-05-21T03:50:08;102120.88;;;12.48;100.00
12664;BME280;6396;58.490;15.528;2023-05-21T03:52:35;102026.88;;;12.00;100.00
12664;BME280;6396;58.490;15.528;2023-05-21T03:55:02;101626.06;;;9.78;100.00
12664;BME280;6396;58.490;15.528;2023-05-21T03:57:30;101998.59;;;12.02;100.00
12664;BME280;6396;58.490;15.528;2023-05-21T03:59:57;102109.28;;;12.59;100.00
12664;BME280;6396;58.490;15.528;2023-05-21T04:02:24;102087.16;;;12.65;100.00
12664;BME280;6396;58.490;15.528;2023-05-21T04:04:52;101979.34;;;11.86;100.00
12664;BME280;6396;58.490;15.528;2023-05-21T04:07:19;101725.72;;;10.67;100.00
12664;BME280;6396;58.490;15.528;2023-05-21T04:09:46;102027.28;;;12.47;100.00
12664;BME280;6396;58.490;15.528;2023-05-21T04:12:13;102109.03;;;12.83;100.00
12664;BME280;6396;58.490;15.528;2023-05-21T04:14:43;102016.59;;;12.53;100.00
12664;BME280;6396;58.490;15.528;2023-05-21T04:17:10;101963.97;;;12.23;100.00
12664;BME280;6396;58.490;15.528;2023-05-21T04:19:37;102027.91;;;12.67;100.00
12664;BME280;6396;58.490;15.528;2023-05-21T04:22:06;101875.28;;;11.86;100.00
12664;BME280;6396;58.490;15.528;2023-05-21T04:24:33;101994.19;;;12.80;100.00
12664;BME280;6396;58.490;15.528;2023-05-21T04:27:02;102104.91;;;13.31;100.00
12664;BME280;6396;58.490;15.528;2023-05-21T04:29:29;101927.78;;;12.23;100.00
12664;BME280;6396;58.490;15.528;2023-05-21T04:31:57;102078.16;;;13.46;100.00
12664;BME280;6396;58.490;15.528;2023-05-21T04:34:24;102114.41;;;13.47;100.00
12664;BME280;6396;58.490;15.528;2023-05-21T04:36:51;102083.38;;;13.54;100.00
12664;BME280;6396;58.490;15.528;2023-05-21T04:39:18;102048.28;;;13.33;100.00
12664;BME280;6396;58.490;15.528;2023-05-21T04:41:45;102014.22;;;13.03;100.00
12664;BME280;6396;58.490;15.528;2023-05-21T04:44:12;102113.31;;;13.62;100.00
12664;BME280;6396;58.490;15.528;2023-05-21T04:46:40;102014.81;;;13.23;100.00
12664;BME280;6396;58.490;15.528;2023-05-21T04:49:11;101593.38;;;10.91;100.00
12664;BME280;6396;58.490;15.528;2023-05-21T04:51:38;102099.81;;;13.78;100.00
12664;BME280;6396;58.490;15.528;2023-05-21T04:54:06;102075.00;;;13.79;100.00
12664;BME280;6396;58.490;15.528;2023-05-21T04:56:32;102073.13;;;13.86;100.00
12664;BME280;6396;58.490;15.528;2023-05-21T04:58:59;102042.94;;;13.36;100.00
12664;BME280;6396;58.490;15.528;2023-05-21T05:01:26;102095.00;;;14.00;100.00
12664;BME280;6396;58.490;15.528;2023-05-21T05:03:53;101728.59;;;12.03;100.00
12664;BME280;6396;58.490;15.528;2023-05-21T05:06:21;102105.44;;;14.12;100.00
12664;BME280;6396;58.490;15.528;2023-05-21T05:08:50;102097.41;;;14.16;100.00
12664;BME280;6396;58.490;15.528;2023-05-21T05:11:16;102057.94;;;13.94;100.00
12664;BME280;6396;58.490;15.528;2023-05-21T05:13:43;102017.53;;;13.77;100.00
12664;BME280;6396;58.490;15.528;2023-05-21T05:16:10;101653.25;;;11.65;100.00
12664;BME280;6396;58.490;15.528;2023-05-21T05:18:37;102075.03;;;14.31;100.00
12664;BME280;6396;58.490;15.528;2023-05-21T05:21:04;102090.91;;;14.35;100.00
12664;BME280;6396;58.490;15.528;2023-05-21T05:23:32;102101.41;;;14.43;100.00
12664;BME280;6396;58.490;15.528;2023-05-21T05:26:02;101933.69;;;13.64;100.00
12664;BME280;6396;58.490;15.528;2023-05-21T05:28:29;102105.69;;;14.48;100.00
12664;BME280;6396;58.490;15.528;2023-05-21T05:30:55;102066.69;;;14.50;100.00
12664;BME280;6396;58.490;15.528;2023-05-21T05:33:22;102032.56;;;14.28;100.00
12664;BME280;6396;58.490;15.528;2023-05-21T05:35:49;102079.78;;;14.61;100.00
12664;BME280;6396;58.490;15.528;2023-05-21T05:38:16;101996.38;;;14.19;100.00
12664;BME280;6396;58.490;15.528;2023-05-21T05:40:44;102050.88;;;14.44;100.00
12664;BME280;6396;58.490;15.528;2023-05-21T05:43:11;102095.56;;;14.70;100.00
12664;BME280;6396;58.490;15.528;2023-05-21T05:45:37;101948.16;;;13.95;100.00
12664;BME280;6396;58.490;15.528;2023-05-21T05:48:05;101960.41;;;14.02;100.00
12664;BME280;6396;58.490;15.528;2023-05-21T05:50:31;101862.25;;;13.50;100.00
12664;BME280;6396;58.490;15.528;2023-05-21T05:52:58;102065.34;;;14.74;100.00
12664;BME280;6396;58.490;15.528;2023-05-21T05:55:25;101850.81;;;13.48;100.00
12664;BME280;6396;58.490;15.528;2023-05-21T05:57:53;102076.59;;;14.88;100.00
12664;BME280;6396;58.490;15.528;2023-05-21T06:00:20;102070.25;;;14.92;100.00
12664;BME280;6396;58.490;15.528;2023-05-21T06:02:47;101944.06;;;14.23;100.00
12664;BME280;6396;58.490;15.528;2023-05-21T06:05:14;101963.69;;;14.16;100.00
12664;BME280;6396;58.490;15.528;2023-05-21T06:07:41;102014.38;;;14.52;100.00
12664;BME280;6396;58.490;15.528;2023-05-21T06:10:08;101967.72;;;14.38;100.00
12664;BME280;6396;58.490;15.528;2023-05-21T06:12:35;101929.34;;;14.05;100.00
12664;BME280;6396;58.490;15.528;2023-05-21T06:15:05;101931.34;;;14.40;100.00
12664;BME280;6396;58.490;15.528;2023-05-21T06:17:32;101918.09;;;14.38;100.00
12664;BME280;6396;58.490;15.528;2023-05-21T06:19:58;102003.06;;;14.84;100.00
12664;BME280;6396;58.490;15.528;2023-05-21T06:22:25;102063.94;;;15.39;100.00
12664;BME280;6396;58.490;15.528;2023-05-21T06:24:52;102044.13;;;15.52;100.00
12664;BME280;6396;58.490;15.528;2023-05-21T06:27:19;101936.41;;;14.92;100.00
12664;BME280;6396;58.490;15.528;2023-05-21T06:29:46;101998.53;;;15.27;100.00
12664;BME280;6396;58.490;15.528;2023-05-21T06:32:14;101550.38;;;12.91;100.00
12664;BME280;6396;58.490;15.528;2023-05-21T06:34:41;102001.81;;;15.38;100.00
12664;BME280;6396;58.490;15.528;2023-05-21T06:37:08;102060.03;;;15.92;100.00
12664;BME280;6396;58.490;15.528;2023-05-21T06:39:34;101805.00;;;14.64;100.00
12664;BME280;6396;58.490;15.528;2023-05-21T06:42:01;102058.63;;;16.12;100.00
12664;BME280;6396;58.490;15.528;2023-05-21T06:44:28;101961.81;;;15.78;100.00
12664;BME280;6396;58.490;15.528;2023-05-21T06:46:55;101795.69;;;14.81;100.00
12664;BME280;6396;58.490;15.528;2023-05-21T06:49:23;102057.47;;;16.22;100.00
12664;BME280;6396;58.490;15.528;2023-05-21T06:51:50;101616.88;;;13.66;100.00
12664;BME280;6396;58.490;15.528;2023-05-21T06:54:17;101906.47;;;15.55;100.00
12664;BME280;6396;58.490;15.528;2023-05-21T06:56:44;102048.94;;;16.42;100.00
12664;BME280;6396;58.490;15.528;2023-05-21T06:59:11;102090.59;;;16.47;100.00
12664;BME280;6396;58.490;15.528;2023-05-21T07:01:38;102051.19;;;16.25;100.00
12664;BME280;6396;58.490;15.528;2023-05-21T07:04:08;102009.16;;;16.01;100.00
12664;BME280;6396;58.490;15.528;2023-05-21T07:06:38;102040.22;;;16.67;100.00
12664;BME280;6396;58.490;15.528;2023-05-21T07:09:05;102092.72;;;16.98;100.00
12664;BME280;6396;58.490;15.528;2023-05-21T07:11:33;102093.56;;;17.29;100.00
12664;BME280;6396;58.490;15.528;2023-05-21T07:14:00;101804.50;;;16.13;100.00
12664;BME280;6396;58.490;15.528;2023-05-21T07:16:28;102044.84;;;18.04;100.00
12664;BME280;6396;58.490;15.528;2023-05-21T07:18:54;101821.56;;;16.92;100.00
12664;BME280;6396;58.490;15.528;2023-05-21T07:21:21;102041.59;;;18.46;100.00
12664;BME280;6396;58.490;15.528;2023-05-21T07:23:49;102056.69;;;18.49;100.00
12664;BME280;6396;58.490;15.528;2023-05-21T07:26:16;101943.53;;;17.71;100.00
12664;BME280;6396;58.490;15.528;2023-05-21T07:28:43;101704.66;;;16.52;100.00
12664;BME280;6396;58.490;15.528;2023-05-21T07:31:10;101953.91;;;17.80;93.17
12664;BME280;6396;58.490;15.528;2023-05-21T07:33:37;102065.09;;;18.63;100.00
12664;BME280;6396;58.490;15.528;2023-05-21T07:36:04;102069.00;;;18.77;99.35
12664;BME280;6396;58.490;15.528;2023-05-21T07:38:31;101816.03;;;17.75;97.81
12664;BME280;6396;58.490;15.528;2023-05-21T07:41:00;102006.97;;;18.89;79.81
12664;BME280;6396;58.490;15.528;2023-05-21T07:43:27;101987.09;;;19.41;64.47
12664;BME280;6396;58.490;15.528;2023-05-21T07:45:54;102030.31;;;20.39;66.66
12664;BME280;6396;58.490;15.528;2023-05-21T07:48:20;102046.84;;;21.27;54.08
12664;BME280;6396;58.490;15.528;2023-05-21T07:50:48;101965.81;;;21.35;56.99
12664;BME280;6396;58.490;15.528;2023-05-21T07:53:19;101785.19;;;21.28;54.96
12664;BME280;6396;58.490;15.528;2023-05-21T07:55:46;101674.25;;;21.09;49.11
12664;BME280;6396;58.490;15.528;2023-05-21T07:58:15;101889.13;;;22.63;49.77
12664;BME280;6396;58.490;15.528;2023-05-21T08:00:45;102021.00;;;24.06;45.57
12664;BME280;6396;58.490;15.528;2023-05-21T08:03:13;101491.06;;;21.02;47.48
12664;BME280;6396;58.490;15.528;2023-05-21T08:05:41;101879.13;;;23.57;45.28
12664;BME280;6396;58.490;15.528;2023-05-21T08:08:12;102049.94;;;24.48;41.18
12664;BME280;6396;58.490;15.528;2023-05-21T08:10:39;102018.69;;;24.44;40.34
12664;BME280;6396;58.490;15.528;2023-05-21T08:13:06;101854.81;;;23.27;42.38
12664;BME280;6396;58.490;15.528;2023-05-21T08:15:34;101994.72;;;24.23;39.72
12664;BME280;6396;58.490;15.528;2023-05-21T08:18:01;101880.63;;;23.47;39.84
12664;BME280;6396;58.490;15.528;2023-05-21T08:20:28;101812.72;;;23.40;39.44
12664;BME280;6396;58.490;15.528;2023-05-21T08:22:57;102027.03;;;24.97;39.12
12664;BME280;6396;58.490;15.528;2023-05-21T08:25:24;101866.25;;;24.33;39.41
12664;BME280;6396;58.490;15.528;2023-05-21T08:27:51;102005.94;;;25.44;38.60
12664;BME280;6396;58.490;15.528;2023-05-21T08:30:18;101996.84;;;25.59;39.99
12664;BME280;6396;58.490;15.528;2023-05-21T08:32:46;101934.59;;;25.18;40.79
12664;BME280;6396;58.490;15.528;2023-05-21T08:35:13;101831.78;;;24.79;41.21
12664;BME280;6396;58.490;15.528;2023-05-21T08:37:40;101715.88;;;24.34;40.28
12664;BME280;6396;58.490;15.528;2023-05-21T08:40:09;101908.75;;;25.68;40.70
12664;BME280;6396;58.490;15.528;2023-05-21T08:42:41;102019.03;;;26.30;39.32
12664;BME280;6396;58.490;15.528;2023-05-21T08:45:10;102017.06;;;26.19;39.80
12664;BME280;6396;58.490;15.528;2023-05-21T08:47:40;102024.75;;;26.13;38.38
12664;BME280;6396;58.490;15.528;2023-05-21T08:50:10;101897.34;;;25.36;38.93
12664;BME280;6396;58.490;15.528;2023-05-21T08:52:37;101893.94;;;25.20;39.21
12664;BME280;6396;58.490;15.528;2023-05-21T08:55:05;101991.50;;;25.84;38.99
12664;BME280;6396;58.490;15.528;2023-05-21T08:57:35;102010.47;;;26.23;38.55
12664;BME280;6396;58.490;15.528;2023-05-21T09:00:03;101952.94;;;25.81;38.70
12664;BME280;6396;58.490;15.528;2023-05-21T09:02:32;101913.94;;;26.10;38.63
12664;BME280;6396;58.490;15.528;2023-05-21T09:05:01;102004.88;;;26.52;38.38
12664;BME280;6396;58.490;15.528;2023-05-21T09:07:34;101598.50;;;23.99;36.87
12664;BME280;6396;58.490;15.528;2023-05-21T09:10:06;101808.94;;;24.97;38.40
12664;BME280;6396;58.490;15.528;2023-05-21T09:12:34;102007.22;;;25.65;37.36
12664;BME280;6396;58.490;15.528;2023-05-21T09:15:02;101944.44;;;25.60;36.62
12664;BME280;6396;58.490;15.528;2023-05-21T09:17:29;101956.56;;;25.67;36.57
12664;BME280;6396;58.490;15.528;2023-05-21T09:20:07;101980.34;;;26.15;34.27
12664;BME280;6396;58.490;15.528;2023-05-21T09:22:39;102008.44;;;26.65;36.96
12664;BME280;6396;58.490;15.528;2023-05-21T09:25:07;101912.94;;;26.23;37.47
12664;BME280;6396;58.490;15.528;2023-05-21T09:27:34;102003.13;;;27.01;36.79
12664;BME280;6396;58.490;15.528;2023-05-21T09:30:02;101845.13;;;26.12;36.43
12664;BME280;6396;58.490;15.528;2023-05-21T09:32:29;102002.88;;;27.16;36.80
12664;BME280;6396;58.490;15.528;2023-05-21T09:34:56;102004.84;;;27.02;36.46
12664;BME280;6396;58.490;15.528;2023-05-21T09:37:23;101931.91;;;26.49;36.02
12664;BME280;6396;58.490;15.528;2023-05-21T09:39:53;101831.63;;;25.48;36.92
12664;BME280;6396;58.490;15.528;2023-05-21T09:42:20;101890.28;;;25.99;36.53
12664;BME280;6396;58.490;15.528;2023-05-21T09:44:47;101912.06;;;26.23;36.06
12664;BME280;6396;58.490;15.528;2023-05-21T09:47:18;102013.84;;;26.65;33.63
12664;BME280;6396;58.490;15.528;2023-05-21T09:49:47;101962.78;;;26.21;36.57
12664;BME280;6396;58.490;15.528;2023-05-21T09:52:22;101972.66;;;25.83;36.36
12664;BME280;6396;58.490;15.528;2023-05-21T09:54:50;102022.09;;;25.72;36.59
12664;BME280;6396;58.490;15.528;2023-05-21T09:57:24;101586.47;;;22.93;37.09
12664;BME280;6396;58.490;15.528;2023-05-21T09:59:51;101634.53;;;22.71;37.79
12664;BME280;6396;58.490;15.528;2023-05-21T10:02:19;101966.16;;;24.19;36.88
12664;BME280;6396;58.490;15.528;2023-05-21T10:04:48;101851.25;;;22.97;36.42
12664;BME280;6396;58.490;15.528;2023-05-21T10:07:17;101977.63;;;23.48;36.30
12664;BME280;6396;58.490;15.528;2023-05-21T10:09:46;101677.06;;;21.56;36.64
12664;BME280;6396;58.490;15.528;2023-05-21T10:12:16;101990.91;;;23.37;37.04
12664;BME280;6396;58.490;15.528;2023-05-21T10:14:45;101997.63;;;23.13;36.86
12664;BME280;6396;58.490;15.528;2023-05-21T10:17:17;101932.06;;;22.49;38.32
12664;BME280;6396;58.490;15.528;2023-05-21T10:19:45;101979.34;;;23.18;41.45
12664;BME280;6396;58.490;15.528;2023-05-21T10:22:13;101381.41;;;20.13;41.54
12664;BME280;6396;58.490;15.528;2023-05-21T10:24:42;101944.00;;;23.69;41.68
12664;BME280;6396;58.490;15.528;2023-05-21T10:27:10;101890.44;;;23.63;41.82
12664;BME280;6396;58.490;15.528;2023-05-21T10:29:39;101786.91;;;22.91;41.00
12664;BME280;6396;58.490;15.528;2023-05-21T10:32:09;101771.97;;;23.15;41.72
12664;BME280;6396;58.490;15.528;2023-05-21T10:34:37;101583.84;;;22.03;41.63
12664;BME280;6396;58.490;15.528;2023-05-21T10:37:07;101352.47;;;20.83;40.73
12664;BME280;6396;58.490;15.528;2023-05-21T10:39:34;101560.06;;;22.11;42.11
12664;BME280;6396;58.490;15.528;2023-05-21T10:42:11;101523.31;;;21.80;42.06
12664;BME280;6396;58.490;15.528;2023-05-21T10:44:55;102036.50;;;24.90;39.70
12664;BME280;6396;58.490;15.528;2023-05-21T10:47:44;101297.03;;;20.82;42.31
12664;BME280;6396;58.490;15.528;2023-05-21T10:53:10;101765.38;;;23.78;42.92
12664;BME280;6396;58.490;15.528;2023-05-21T10:55:49;101174.44;;;20.67;40.45
12664;BME280;6396;58.490;15.528;2023-05-21T10:58:53;101397.84;;;21.50;42.39
12664;BME280;6396;58.490;15.528;2023-05-21T11:01:25;101978.22;;;25.26;38.87
12664;BME280;6396;58.490;15.528;2023-05-21T11:03:55;101930.81;;;24.80;38.83
12664;BME280;6396;58.490;15.528;2023-05-21T11:06:24;101948.81;;;25.08;39.61
12664;BME280;6396;58.490;15.528;2023-05-21T11:08:52;101909.84;;;24.98;39.05
12664;BME280;6396;58.490;15.528;2023-05-21T11:11:48;101935.78;;;25.00;39.18
12664;BME280;6396;58.490;15.528;2023-05-21T11:14:34;101836.16;;;24.54;37.62
12664;BME280;6396;58.490;15.528;2023-05-21T11:17:09;101854.06;;;24.83;37.74
12664;BME280;6396;58.490;15.528;2023-05-21T11:19:39;101889.00;;;25.00;39.12
12664;BME280;6396;58.490;15.528;2023-05-21T11:22:20;101937.38;;;25.31;37.42
12664;BME280;6396;58.490;15.528;2023-05-21T11:24:47;101961.03;;;25.27;39.68
12664;BME280;6396;58.490;15.528;2023-05-21T11:27:29;101922.28;;;25.41;40.29
12664;BME280;6396;58.490;15.528;2023-05-21T11:29:57;101726.06;;;24.16;41.64
12664;BME280;6396;58.490;15.528;2023-05-21T11:32:25;101697.63;;;24.11;41.78
12664;BME280;6396;58.490;15.528;2023-05-21T11:34:58;101920.63;;;25.38;42.23
12664;BME280;6396;58.490;15.528;2023-05-21T11:37:30;101830.94;;;24.65;41.07
12664;BME280;6396;58.490;15.528;2023-05-21T11:40:21;101922.28;;;25.41;42.05
12664;BME280;6396;58.490;15.528;2023-05-21T11:42:51;101778.19;;;24.45;42.68
12664;BME280;6396;58.490;15.528;2023-05-21T11:45:19;101825.81;;;24.74;42.22
12664;BME280;6396;58.490;15.528;2023-05-21T11:47:46;101819.34;;;24.77;41.54
12664;BME280;6396;58.490;15.528;2023-05-21T11:50:15;101911.91;;;25.48;42.08
12664;BME280;6396;58.490;15.528;2023-05-21T11:52:43;101751.66;;;24.38;38.39
12664;BME280;6396;58.490;15.528;2023-05-21T11:55:10;101852.19;;;24.97;40.92
12664;BME280;6396;58.490;15.528;2023-05-21T11:57:40;101855.78;;;24.98;40.41
12664;BME280;6396;58.490;15.528;2023-05-21T12:00:12;101906.53;;;25.33;39.59
12664;BME280;6396;58.490;15.528;2023-05-21T12:02:44;101533.81;;;22.74;42.50
12664;BME280;6396;58.490;15.528;2023-05-21T12:05:11;101670.28;;;24.03;41.85
12664;BME280;6396;58.490;15.528;2023-05-21T12:07:39;101841.41;;;24.83;41.42
12664;BME280;6396;58.490;15.528;2023-05-21T12:10:07;101931.47;;;25.24;42.40
12664;BME280;6396;58.490;15.528;2023-05-21T12:12:34;101690.97;;;24.02;42.71
12664;BME280;6396;58.490;15.528;2023-05-21T12:15:01;101830.50;;;24.85;43.52
12664;BME280;6396;58.490;15.528;2023-05-21T12:17:29;101783.25;;;24.64;42.82
12664;BME280;6396;58.490;15.528;2023-05-21T12:19:57;101780.34;;;24.67;42.84
12664;BME280;6396;58.490;15.528;2023-05-21T12:22:26;101895.75;;;25.19;43.13
12664;BME280;6396;58.490;15.528;2023-05-21T12:24:55;101917.28;;;25.21;43.44
12664;BME280;6396;58.490;15.528;2023-05-21T12:27:25;101461.28;;;22.57;42.02
12664;BME280;6396;58.490;15.528;2023-05-21T12:29:52;101895.50;;;25.10;43.36
12664;BME280;6396;58.490;15.528;2023-05-21T12:32:20;101894.63;;;25.09;44.19
12664;BME280;6396;58.490;15.528;2023-05-21T12:34:48;101510.84;;;22.82;43.04
12664;BME280;6396;58.490;15.528;2023-05-21T12:37:18;101837.59;;;24.59;44.77
12664;BME280;6396;58.490;15.528;2023-05-21T12:39:47;101889.03;;;24.86;43.97
12664;BME280;6396;58.490;15.528;2023-05-21T12:42:16;101918.34;;;24.92;44.70
12664;BME280;6396;58.490;15.528;2023-05-21T12:44:51;101631.59;;;23.48;45.61
12664;BME280;6396;58.490;15.528;2023-05-21T12:47:18;101587.44;;;23.06;45.07
12664;BME280;6396;58.490;15.528;2023-05-21T12:49:45;101687.34;;;23.47;45.77
12664;BME280;6396;58.490;15.528;2023-05-21T12:52:13;101766.53;;;23.88;46.54
12664;BME280;6396;58.490;15.528;2023-05-21T12:54:44;101511.97;;;22.35;46.90